createdAt,value
2022-09-02T00:00:20.446Z,98632.38
2022-09-02T00:02:48.812Z,98625.38
2022-09-02T00:05:15.248Z,98627.44
2022-09-02T00:07:41.600Z,98621.59
2022-09-02T00:10:08.085Z,98624.75
2022-09-02T00:12:34.440Z,98619.72
2022-09-02T00:15:00.807Z,98621.88
2022-09-02T00:17:28.041Z,98622.06
2022-09-02T00:19:56.273Z,98619.63
2022-09-02T00:22:23.845Z,98614.66
2022-09-02T00:24:50.535Z,98610.25
2022-09-02T00:27:17.547Z,98605.41
2022-09-02T00:29:43.946Z,98610.44
2022-09-02T00:32:10.349Z,98602.19
2022-09-02T00:34:36.895Z,98608.69
2022-09-02T00:37:03.247Z,98604.09
2022-09-02T00:39:29.651Z,98600.69
2022-09-02T00:41:56.105Z,98598.88
2022-09-02T00:44:22.737Z,98597.97
2022-09-02T00:46:49.088Z,98602.94
2022-09-02T00:49:25.798Z,98596.38
2022-09-02T00:52:11.045Z,98601.66
2022-09-02T00:54:39.812Z,98593.88
2022-09-02T00:57:07.490Z,98592.06
2022-09-02T00:59:43.433Z,98592.97
2022-09-02T01:02:10.199Z,98598.97
2022-09-02T01:04:36.760Z,98593.06
2022-09-02T01:07:03.401Z,98578.50
2022-09-02T01:09:31.938Z,98584.06
2022-09-02T01:11:58.793Z,98584.00
2022-09-02T01:14:28.709Z,98579.31
2022-09-02T01:16:55.406Z,98588.00
2022-09-02T01:19:26.324Z,98587.50
2022-09-02T01:21:53.445Z,98583.34
2022-09-02T01:24:20.304Z,98582.63
2022-09-02T01:26:46.758Z,98571.84
2022-09-02T01:29:13.182Z,98581.72
2022-09-02T01:31:39.849Z,98574.53
2022-09-02T01:34:06.573Z,98575.69
2022-09-02T01:36:33.914Z,98568.63
2022-09-02T01:39:00.271Z,98575.97
2022-09-02T01:41:26.634Z,98566.91
2022-09-02T01:43:52.992Z,98561.34
2022-09-02T01:46:20.355Z,98560.19
2022-09-02T01:48:46.769Z,98562.25
2022-09-02T01:51:15.396Z,98553.53
2022-09-02T01:53:41.757Z,98550.56
2022-09-02T01:56:08.127Z,98551.56
2022-09-02T01:58:34.620Z,98547.69
2022-09-02T02:01:01.083Z,98551.00
2022-09-02T02:03:27.791Z,98547.06
2022-09-02T02:05:55.408Z,98544.84
2022-09-02T02:08:21.986Z,98542.13
2022-09-02T02:10:48.575Z,98540.34
2022-09-02T02:13:14.928Z,98544.84
2022-09-02T02:15:41.453Z,98534.88
2022-09-02T02:18:08.022Z,98540.69
2022-09-02T02:20:34.373Z,98541.25
2022-09-02T02:23:00.727Z,98538.00
2022-09-02T02:25:27.171Z,98535.84
2022-09-02T02:27:53.567Z,98531.88
2022-09-02T02:30:20.171Z,98536.19
2022-09-02T02:32:47.278Z,98540.13
2022-09-02T02:35:14.522Z,98534.88
2022-09-02T02:37:41.167Z,98523.19
2022-09-02T02:40:07.990Z,98526.88
2022-09-02T02:42:34.466Z,98531.34
2022-09-02T02:45:01.069Z,98533.97
2022-09-02T02:47:27.756Z,98517.81
2022-09-02T02:49:54.128Z,98527.50
2022-09-02T02:52:20.790Z,98525.50
2022-09-02T02:54:47.177Z,98524.97
2022-09-02T02:57:14.080Z,98519.13
2022-09-02T02:59:40.437Z,98527.75
2022-09-02T03:02:06.964Z,98521.56
2022-09-02T03:04:34.231Z,98518.78
2022-09-02T03:07:00.811Z,98529.09
2022-09-02T03:09:27.178Z,98522.13
2022-09-02T03:11:53.529Z,98521.22
2022-09-02T03:14:19.917Z,98523.44
2022-09-02T03:16:46.301Z,98515.38
2022-09-02T03:19:14.191Z,98513.31
2022-09-02T03:21:40.847Z,98520.25
2022-09-02T03:24:07.687Z,98513.84
2022-09-02T03:26:34.072Z,98525.50
2022-09-02T03:29:00.426Z,98522.72
2022-09-02T03:31:27.065Z,98515.81
2022-09-02T03:33:53.564Z,98517.91
2022-09-02T03:36:21.882Z,98517.50
2022-09-02T03:38:48.236Z,98512.94
2022-09-02T03:41:14.603Z,98516.03
2022-09-02T03:43:40.977Z,98506.78
2022-09-02T03:46:09.432Z,98517.66
2022-09-02T03:48:35.853Z,98506.34
2022-09-02T03:51:02.383Z,98513.50
2022-09-02T03:53:29.057Z,98507.03
2022-09-02T03:55:55.419Z,98507.22
2022-09-02T03:58:23.586Z,98508.00
2022-09-02T04:00:51.781Z,98503.56
2022-09-02T04:03:18.500Z,98506.91
2022-09-02T04:05:48.964Z,98503.88
2022-09-02T04:08:15.377Z,98502.81
2022-09-02T04:10:41.804Z,98502.19
2022-09-02T04:13:08.175Z,98505.13
2022-09-02T04:15:34.709Z,98502.84
2022-09-02T04:18:01.326Z,98505.34
2022-09-02T04:20:27.710Z,98502.91
2022-09-02T04:22:54.073Z,98499.94
2022-09-02T04:25:20.497Z,98502.22
2022-09-02T04:27:54.048Z,98494.22
2022-09-02T04:30:21.494Z,98499.81
2022-09-02T04:32:48.431Z,98496.03
2022-09-02T04:35:15.035Z,98494.81
2022-09-02T04:37:41.379Z,98491.13
2022-09-02T04:40:08.555Z,98487.72
2022-09-02T04:42:35.640Z,98494.78
2022-09-02T04:45:02.107Z,98491.69
2022-09-02T04:47:28.446Z,98492.84
2022-09-02T04:49:55.215Z,98493.72
2022-09-02T04:52:21.629Z,98493.72
2022-09-02T04:54:48.132Z,98491.78
2022-09-02T04:57:14.488Z,98490.50
2022-09-02T04:59:40.871Z,98490.50
2022-09-02T05:02:07.298Z,98491.69
2022-09-02T05:04:33.726Z,98496.44
2022-09-02T05:07:01.844Z,98500.75
2022-09-02T05:09:28.722Z,98498.41
2022-09-02T05:11:57.755Z,98498.19
2022-09-02T05:14:24.653Z,98502.91
2022-09-02T05:16:53.889Z,98502.28
2022-09-02T05:19:26.362Z,98505.13
2022-09-02T05:21:57.530Z,98508.06
2022-09-02T05:24:26.690Z,98500.16
2022-09-02T05:26:53.308Z,98500.28
2022-09-02T05:29:20.595Z,98502.44
2022-09-02T05:31:47.582Z,98491.44
2022-09-02T05:34:14.287Z,98491.41
2022-09-02T05:36:40.916Z,98498.06
2022-09-02T05:39:07.453Z,98488.59
2022-09-02T05:41:33.834Z,98491.16
2022-09-02T05:44:01.601Z,98493.22
2022-09-02T05:46:30.205Z,98487.38
2022-09-02T05:49:06.266Z,98494.16
2022-09-02T05:51:41.502Z,98487.97
2022-09-02T05:54:08.532Z,98489.72
2022-09-02T05:56:34.892Z,98486.16
2022-09-02T05:59:01.666Z,98491.34
2022-09-02T06:01:28.398Z,98487.13
2022-09-02T06:03:55.437Z,98489.06
2022-09-02T06:06:23.810Z,98491.22
2022-09-02T06:08:50.578Z,98491.72
2022-09-02T06:11:17.928Z,98497.72
2022-09-02T06:13:44.354Z,98493.31
2022-09-02T06:16:13.436Z,98493.63
2022-09-02T06:18:40.284Z,98492.59
2022-09-02T06:21:06.686Z,98495.53
2022-09-02T06:23:36.513Z,98499.69
2022-09-02T06:26:02.884Z,98494.63
2022-09-02T06:28:29.503Z,98496.72
2022-09-02T06:30:55.924Z,98492.47
2022-09-02T06:33:22.389Z,98492.13
2022-09-02T06:35:49.363Z,98493.19
2022-09-02T06:38:15.756Z,98500.56
2022-09-02T06:40:54.994Z,98494.69
2022-09-02T06:43:21.431Z,98499.97
2022-09-02T06:45:47.821Z,98504.38
2022-09-02T06:48:14.285Z,98493.28
2022-09-02T06:50:44.200Z,98502.66
2022-09-02T06:53:11.997Z,98493.19
2022-09-02T06:55:39.031Z,98496.78
2022-09-02T06:58:05.428Z,98500.53
2022-09-02T07:00:31.857Z,98499.03
2022-09-02T07:03:17.611Z,98501.84
2022-09-02T07:05:43.962Z,98496.88
2022-09-02T07:08:10.553Z,98489.75
2022-09-02T07:10:39.924Z,98497.84
2022-09-02T07:13:06.601Z,98494.00
2022-09-02T07:15:33.142Z,98501.84
2022-09-02T07:17:59.563Z,98498.03
2022-09-02T07:20:26.152Z,98507.44
2022-09-02T07:22:52.499Z,98498.28
2022-09-02T07:25:18.941Z,98501.78
2022-09-02T07:27:45.696Z,98497.06
2022-09-02T07:30:12.380Z,98503.19
2022-09-02T07:32:38.762Z,98500.28
2022-09-02T07:35:06.285Z,98501.22
2022-09-02T07:37:34.647Z,98504.97
2022-09-02T07:40:04.862Z,98502.22
2022-09-02T07:42:31.258Z,98511.78
2022-09-02T07:44:57.631Z,98503.81
2022-09-02T07:47:23.991Z,98508.25
2022-09-02T07:52:37.802Z,98501.81
2022-09-02T07:55:04.630Z,98502.63
2022-09-02T07:57:31.823Z,98503.88
2022-09-02T07:59:58.426Z,98506.66
2022-09-02T08:02:24.904Z,98499.06
2022-09-02T08:04:51.421Z,98511.91
2022-09-02T08:07:24.002Z,98504.25
2022-09-02T08:09:51.353Z,98508.69
2022-09-02T08:12:20.184Z,98501.81
2022-09-02T08:14:48.625Z,98505.41
2022-09-02T08:17:15.356Z,98502.13
2022-09-02T08:19:41.722Z,98508.19
2022-09-02T08:22:08.344Z,98507.31
2022-09-02T08:24:35.356Z,98509.72
2022-09-02T08:27:01.830Z,98512.13
2022-09-02T08:29:28.194Z,98508.81
2022-09-02T08:31:54.588Z,98504.75
2022-09-02T08:34:20.991Z,98500.38
2022-09-02T08:36:56.385Z,98504.47
2022-09-02T08:42:03.079Z,98501.03
2022-09-02T08:44:29.810Z,98487.72
2022-09-02T08:46:56.577Z,98499.19
2022-09-02T08:49:25.414Z,98493.94
2022-09-02T08:52:01.241Z,98494.78
2022-09-02T08:54:47.608Z,98493.25
2022-09-02T08:57:13.953Z,98495.69
2022-09-02T09:02:22.461Z,98484.91
2022-09-02T09:04:54.191Z,98481.63
2022-09-02T09:07:23.517Z,98491.31
2022-09-02T09:09:52.915Z,98486.09
2022-09-02T09:12:37.952Z,98485.19
2022-09-02T09:15:19.539Z,98489.47
2022-09-02T09:17:49.566Z,98480.97
2022-09-02T09:20:23.464Z,98477.81
2022-09-02T09:22:49.925Z,98479.59
2022-09-02T09:25:16.417Z,98485.81
2022-09-02T09:27:42.971Z,98479.72
2022-09-02T09:30:14.905Z,98475.34
2022-09-02T09:32:43.063Z,98469.31
2022-09-02T09:35:10.038Z,98475.91
2022-09-02T09:37:40.357Z,98472.09
2022-09-02T09:40:27.120Z,98460.78
2022-09-02T09:42:57.611Z,98468.25
2022-09-02T09:45:28.361Z,98462.66
2022-09-02T09:48:13.783Z,98468.66
2022-09-02T09:50:40.138Z,98470.72
2022-09-02T09:53:22.415Z,98459.50
2022-09-02T09:56:08.010Z,98457.06
2022-09-02T09:58:40.311Z,98455.06
2022-09-02T10:01:25.866Z,98456.25
2022-09-02T10:03:55.936Z,98456.44
2022-09-02T10:06:36.036Z,98453.34
2022-09-02T10:09:03.470Z,98446.78
2022-09-02T10:11:33.696Z,98447.91
2022-09-02T10:14:00.746Z,98447.16
2022-09-02T10:16:46.079Z,98437.03
2022-09-02T10:19:31.415Z,98447.31
2022-09-02T10:21:58.064Z,98438.47
2022-09-02T10:24:27.155Z,98447.28
2022-09-02T10:26:54.402Z,98438.56
2022-09-02T10:29:20.693Z,98430.56
2022-09-02T10:31:50.525Z,98436.13
2022-09-02T10:34:17.210Z,98429.63
2022-09-02T10:36:49.504Z,98442.38
2022-09-02T10:39:21.619Z,98442.41
2022-09-02T10:41:48.023Z,98425.69
2022-09-02T10:44:33.915Z,98412.97
2022-09-02T10:47:01.314Z,98419.44
2022-09-02T10:49:34.385Z,98415.72
2022-09-02T10:52:12.538Z,98416.50
2022-09-02T10:54:42.746Z,98411.81
2022-09-02T10:57:16.002Z,98412.72
2022-09-02T10:59:44.254Z,98422.09
2022-09-02T11:02:13.183Z,98421.44
2022-09-02T11:04:54.858Z,98423.97
2022-09-02T11:07:22.856Z,98416.16
2022-09-02T11:09:50.544Z,98418.19
2022-09-02T11:12:27.193Z,98419.81
2022-09-02T11:14:56.561Z,98419.97
2022-09-02T11:17:24.801Z,98414.09
2022-09-02T11:20:09.750Z,98408.28
2022-09-02T11:22:54.532Z,98405.16
2022-09-02T11:25:24.699Z,98412.09
2022-09-02T11:28:06.391Z,98416.22
2022-09-02T11:30:37.507Z,98404.41
2022-09-02T11:33:18.365Z,98406.50
2022-09-02T11:35:45.007Z,98411.06
2022-09-02T11:38:30.378Z,98407.00
2022-09-02T11:44:00.941Z,98406.81
2022-09-02T11:46:34.193Z,98403.94
2022-09-02T11:49:00.863Z,98408.31
2022-09-02T11:51:30.517Z,98400.94
2022-09-02T11:53:56.920Z,98396.75
2022-09-02T11:56:25.192Z,98395.50
2022-09-02T11:58:54.488Z,98391.72
2022-09-02T12:01:43.720Z,98388.97
2022-09-02T12:04:55.905Z,98391.53
2022-09-02T12:07:07.684Z,98394.38
2022-09-02T12:09:47.872Z,98397.03
2022-09-02T12:12:34.251Z,98394.69
2022-09-02T12:15:01.064Z,98388.03
2022-09-02T12:17:38.351Z,98374.13
2022-09-02T12:20:08.841Z,98383.44
2022-09-02T12:22:38.729Z,98376.72
2022-09-02T12:25:24.279Z,98380.59
2022-09-02T12:28:13.529Z,98373.91
2022-09-02T12:31:07.379Z,98372.53
2022-09-02T12:33:36.704Z,98374.19
2022-09-02T12:36:04.763Z,98367.66
2022-09-02T12:38:32.168Z,98366.22
2022-09-02T12:41:00.922Z,98358.19
2022-09-02T12:43:38.391Z,98356.75
2022-09-02T12:46:14.851Z,98358.13
2022-09-02T12:48:42.474Z,98358.00
2022-09-02T12:51:08.822Z,98362.53
2022-09-02T12:53:35.113Z,98345.97
2022-09-02T12:56:04.075Z,98350.94
2022-09-02T12:58:34.445Z,98347.03
2022-09-02T13:01:19.182Z,98349.66
2022-09-02T13:03:45.536Z,98338.91
2022-09-02T13:06:12.487Z,98348.75
2022-09-02T13:08:47.897Z,98353.47
2022-09-02T13:11:33.091Z,98342.47
2022-09-02T13:14:18.316Z,98334.22
2022-09-02T13:17:19.047Z,98339.72
2022-09-02T13:20:07.871Z,98338.13
2022-09-02T13:22:39.056Z,98335.19
2022-09-02T13:25:22.462Z,98328.69
2022-09-02T13:27:55.096Z,98318.78
2022-09-02T13:30:23.455Z,98323.78
2022-09-02T13:32:56.754Z,98317.56
2022-09-02T13:35:26.633Z,98314.84
2022-09-02T13:37:59.570Z,98325.25
2022-09-02T13:40:30.323Z,98325.44
2022-09-02T13:42:57.416Z,98317.69
2022-09-02T13:45:27.908Z,98327.50
2022-09-02T13:47:54.960Z,98309.78
2022-09-02T13:50:22.053Z,98312.19
2022-09-02T13:55:37.839Z,98307.75
2022-09-02T13:58:07.639Z,98317.22
2022-09-02T14:00:38.395Z,98317.31
2022-09-02T14:03:05.883Z,98317.00
2022-09-02T14:05:33.115Z,98311.81
2022-09-02T14:08:00.397Z,98308.41
2022-09-02T14:10:27.888Z,98313.72
2022-09-02T14:12:55.264Z,98298.81
2022-09-02T14:15:28.380Z,98298.59
2022-09-02T14:18:18.487Z,98297.94
2022-09-02T14:20:56.003Z,98292.03
2022-09-02T14:23:22.706Z,98293.28
2022-09-02T14:25:50.082Z,98280.19
2022-09-02T14:28:20.309Z,98274.88
2022-09-02T14:30:54.332Z,98284.03
2022-09-02T14:33:36.286Z,98276.94
2022-09-02T14:36:03.659Z,98274.31
2022-09-02T14:38:31.913Z,98271.31
2022-09-02T14:41:02.979Z,98270.09
2022-09-02T14:43:29.953Z,98272.38
2022-09-02T14:46:04.041Z,98269.66
2022-09-02T14:48:30.402Z,98268.50
2022-09-02T14:51:02.471Z,98267.97
2022-09-02T14:53:29.297Z,98262.31
2022-09-02T14:55:55.832Z,98264.88
2022-09-02T14:58:24.837Z,98258.06
2022-09-02T15:00:58.519Z,98249.38
2022-09-02T15:03:25.102Z,98255.63
2022-09-02T15:05:52.299Z,98257.84
2022-09-02T15:08:18.733Z,98252.47
2022-09-02T15:10:45.170Z,98258.94
2022-09-02T15:13:12.642Z,98246.94
2022-09-02T15:15:39.439Z,98252.09
2022-09-02T15:18:05.904Z,98251.97
2022-09-02T15:20:35.494Z,98240.63
2022-09-02T15:23:02.164Z,98245.13
2022-09-02T15:25:28.796Z,98229.94
2022-09-02T15:27:55.155Z,98233.75
2022-09-02T15:30:21.857Z,98226.47
2022-09-02T15:32:48.233Z,98231.09
2022-09-02T15:35:14.590Z,98232.75
2022-09-02T15:37:40.960Z,98222.56
2022-09-02T15:40:08.068Z,98219.38
2022-09-02T15:42:35.291Z,98215.03
2022-09-02T15:45:02.643Z,98223.38
2022-09-02T15:47:30.493Z,98219.63
2022-09-02T15:49:57.695Z,98215.84
2022-09-02T15:52:24.047Z,98213.25
2022-09-02T15:54:50.675Z,98219.56
2022-09-02T15:57:17.165Z,98213.09
2022-09-02T15:59:43.604Z,98212.00
2022-09-02T16:02:09.995Z,98213.09
2022-09-02T16:04:36.380Z,98216.22
2022-09-02T16:07:03.133Z,98208.28
2022-09-02T16:09:29.522Z,98203.00
2022-09-02T16:11:56.277Z,98201.84
2022-09-02T16:14:23.947Z,98202.50
2022-09-02T16:16:50.933Z,98198.41
2022-09-02T16:19:18.990Z,98200.44
2022-09-02T16:21:45.341Z,98196.56
2022-09-02T16:24:11.989Z,98193.72
2022-09-02T16:26:38.675Z,98189.50
2022-09-02T16:29:06.045Z,98191.91
2022-09-02T16:31:32.963Z,98186.00
2022-09-02T16:34:03.450Z,98180.25
2022-09-02T16:36:33.088Z,98176.78
2022-09-02T16:39:03.155Z,98171.66
2022-09-02T16:41:34.641Z,98175.50
2022-09-02T16:44:01.943Z,98165.81
2022-09-02T16:46:28.636Z,98165.81
2022-09-02T16:48:55.511Z,98167.41
2022-09-02T16:51:22.243Z,98162.25
2022-09-02T16:53:52.186Z,98161.88
2022-09-02T16:56:20.136Z,98159.78
2022-09-02T16:58:46.542Z,98172.00
2022-09-02T17:01:13.046Z,98164.50
2022-09-02T17:03:39.776Z,98163.97
2022-09-02T17:06:06.647Z,98165.69
2022-09-02T17:08:33.276Z,98157.59
2022-09-02T17:11:19.683Z,98153.00
2022-09-02T17:13:46.799Z,98152.72
2022-09-02T17:16:13.312Z,98160.47
2022-09-02T17:18:39.679Z,98153.66
2022-09-02T17:21:10.412Z,98148.06
2022-09-02T17:23:36.765Z,98154.56
2022-09-02T17:26:03.116Z,98153.97
2022-09-02T17:28:29.714Z,98158.88
2022-09-02T17:30:56.319Z,98157.38
2022-09-02T17:33:22.881Z,98157.03
2022-09-02T17:35:56.037Z,98157.84
2022-09-02T17:38:26.755Z,98163.34
2022-09-02T17:41:12.024Z,98163.69
2022-09-02T17:43:38.568Z,98174.84
2022-09-02T17:46:05.907Z,98177.75
2022-09-02T17:48:45.158Z,98168.16
2022-09-02T17:51:19.693Z,98172.69
2022-09-02T17:53:46.247Z,98161.66
2022-09-02T17:56:12.891Z,98159.91
2022-09-02T17:58:43.206Z,98165.28
2022-09-02T18:01:17.263Z,98162.88
2022-09-02T18:03:46.522Z,98165.06
2022-09-02T18:06:16.549Z,98171.97
2022-09-02T18:08:42.821Z,98174.94
2022-09-02T18:11:11.863Z,98167.00
2022-09-02T18:13:41.241Z,98164.59
2022-09-02T18:16:22.154Z,98166.25
2022-09-02T18:19:00.456Z,98164.66
2022-09-02T18:21:30.401Z,98163.03
2022-09-02T18:24:00.411Z,98175.91
2022-09-02T18:27:05.096Z,98167.94
2022-09-02T18:29:32.043Z,98177.56
2022-09-02T18:32:16.983Z,98180.00
2022-09-02T18:35:02.081Z,98188.00
2022-09-02T18:37:31.514Z,98189.69
2022-09-02T18:40:03.262Z,98187.31
2022-09-02T18:42:39.115Z,98189.72
2022-09-02T18:45:05.573Z,98181.72
2022-09-02T18:47:33.124Z,98186.13
2022-09-02T18:50:00.313Z,98188.94
2022-09-02T18:52:28.095Z,98196.56
2022-09-02T18:55:00.675Z,98192.16
2022-09-02T18:57:32.878Z,98200.19
2022-09-02T19:00:04.798Z,98199.78
2022-09-02T19:02:31.095Z,98201.78
2022-09-02T19:04:58.131Z,98200.56
2022-09-02T19:07:43.309Z,98200.16
2022-09-02T19:10:09.749Z,98200.16
2022-09-02T19:12:36.223Z,98204.97
2022-09-02T19:15:03.307Z,98206.19
2022-09-02T19:17:29.707Z,98212.19
2022-09-02T19:19:56.064Z,98209.38
2022-09-02T19:22:23.058Z,98212.59
2022-09-02T19:24:50.757Z,98215.38
2022-09-02T19:27:17.984Z,98211.38
2022-09-02T19:29:45.688Z,98213.81
2022-09-02T19:32:12.441Z,98212.19
2022-09-02T19:34:39.120Z,98209.78
2022-09-02T19:37:05.666Z,98212.97
2022-09-02T19:39:32.519Z,98215.78
2022-09-02T19:41:59.665Z,98206.97
2022-09-02T19:44:26.060Z,98210.97
2022-09-02T19:49:39.964Z,98217.78
2022-09-02T19:52:06.576Z,98216.59
2022-09-02T19:54:32.948Z,98213.81
2022-09-02T19:56:59.310Z,98217.38
2022-09-02T19:59:26.801Z,98221.81
2022-09-02T20:01:53.256Z,98228.22
2022-09-02T20:04:20.282Z,98231.03
2022-09-02T20:06:46.933Z,98230.22
2022-09-02T20:09:14.218Z,98229.03
2022-09-02T20:11:41.187Z,98232.22
2022-09-02T20:14:07.961Z,98237.84
2022-09-02T20:16:34.412Z,98234.63
2022-09-02T20:19:00.869Z,98238.63
2022-09-02T20:21:28.176Z,98241.84
2022-09-02T20:23:55.007Z,98244.25
2022-09-02T20:26:30.624Z,98243.44
2022-09-02T20:29:07.017Z,98242.66
2022-09-02T20:31:39.949Z,98244.25
2022-09-02T20:34:12.556Z,98239.44
2022-09-02T20:36:41.560Z,98241.03
2022-09-02T20:39:11.968Z,98245.84
2022-09-02T20:41:57.901Z,98254.66
2022-09-02T20:44:43.193Z,98246.63
2022-09-02T20:47:15.721Z,98244.25
2022-09-02T20:50:02.649Z,98246.63
2022-09-02T20:52:36.643Z,98241.00
2022-09-02T20:55:15.042Z,98240.59
2022-09-02T20:57:50.485Z,98246.19
2022-09-02T21:00:19.766Z,98242.97
2022-09-02T21:02:49.402Z,98245.41
2022-09-02T21:05:22.537Z,98248.22
2022-09-02T21:07:51.180Z,98243.00
2022-09-02T21:10:19.440Z,98244.22
2022-09-02T21:13:02.346Z,98246.63
2022-09-02T21:15:29.749Z,98242.16
2022-09-02T21:18:16.064Z,98238.16
2022-09-02T21:20:42.448Z,98238.13
2022-09-02T21:23:11.184Z,98237.34
2022-09-02T21:25:41.794Z,98230.47
2022-09-02T21:28:09.142Z,98230.81
2022-09-02T21:30:39.631Z,98238.41
2022-09-02T21:33:06.695Z,98230.78
2022-09-02T21:35:36.087Z,98232.31
2022-09-02T21:38:03.799Z,98229.16
2022-09-02T21:40:35.853Z,98233.13
2022-09-02T21:43:18.979Z,98229.91
2022-09-02T21:45:48.648Z,98235.09
2022-09-02T21:48:18.574Z,98235.09
2022-09-02T21:50:58.591Z,98234.63
2022-09-02T21:53:36.571Z,98238.22
2022-09-02T21:56:15.217Z,98233.44
2022-09-02T21:58:50.906Z,98232.19
2022-09-02T22:01:21.836Z,98235.03
2022-09-02T22:03:53.525Z,98229.00
2022-09-02T22:06:22.979Z,98237.28
2022-09-02T22:08:55.080Z,98229.59
2022-09-02T22:11:24.098Z,98234.78
2022-09-02T22:13:50.467Z,98232.81
2022-09-02T22:16:21.661Z,98231.25
2022-09-02T22:18:54.254Z,98230.47
2022-09-02T22:21:44.012Z,98224.50
2022-09-02T22:24:10.572Z,98228.94
2022-09-02T22:26:38.386Z,98219.72
2022-09-02T22:29:06.376Z,98216.09
2022-09-02T22:31:33.040Z,98213.19
2022-09-02T22:33:59.691Z,98219.28
2022-09-02T22:36:30.058Z,98214.44
2022-09-02T22:39:02.272Z,98212.09
2022-09-02T22:41:34.831Z,98217.59
2022-09-02T22:44:08.567Z,98211.06
2022-09-02T22:46:53.787Z,98208.63
2022-09-02T22:49:39.347Z,98205.84
2022-09-02T22:52:44.802Z,98212.16
2022-09-02T22:55:12.071Z,98201.28
2022-09-02T22:57:49.195Z,98195.25
2022-09-02T23:00:16.063Z,98198.44
2022-09-02T23:03:20.996Z,98196.38
2022-09-02T23:05:53.048Z,98194.38
2022-09-02T23:08:23.134Z,98188.75
2022-09-02T23:10:54.769Z,98190.69
2022-09-02T23:13:28.315Z,98192.69
2022-09-02T23:15:58.508Z,98187.06
2022-09-02T23:18:29.429Z,98186.97
2022-09-02T23:20:58.979Z,98184.47
2022-09-02T23:23:31.696Z,98178.03
2022-09-02T23:26:09.483Z,98174.03
2022-09-02T23:28:42.063Z,98177.06
2022-09-02T23:31:31.678Z,98172.19
2022-09-02T23:33:58.978Z,98175.28
2022-09-02T23:36:35.998Z,98172.06
2022-09-02T23:39:11.485Z,98172.81
2022-09-02T23:41:38.814Z,98159.97
2022-09-02T23:44:05.204Z,98168.81
2022-09-02T23:46:50.522Z,98158.69
2022-09-02T23:49:22.918Z,98158.31
2022-09-02T23:52:05.598Z,98150.03
2022-09-02T23:54:51.296Z,98146.03
2022-09-02T23:57:23.628Z,98135.22
